ヨハネスブルグ の空港の天気 - METARとTAF

ヨハネスブルグ/O.R.タンボ国際空港 ( FAOR / JNB ) - 南アフリカ ヨハネスブルグ
飛行場実況気象(Metar)
観測時間02/23 16:00 SAST (02/23 14:00 UTC)
風向・風速北 4m/s
視程10km以上
天気現象
全天の4割程度の雲 雲底高度 460m
気温19℃
湿度64%
気圧1017hPa
METARFAOR 231400Z 36008KT 320V040 9999 SCT015 19/12 Q1017 NOSIG
過去の天気等 Google飛行場航空写真 Wunderground天気予報

過去48時間のMETAR

飛行場予報(TAF)
発表時間: 2/23 15:10 SAST (2/23 13:10 UTC)
予報対象時間: 23日14時 SAST ~ 24日20時 SAST
風向・風速北北西 5m/s
視程10km以上
天気現象弱い雨
全天の8割程度の雲 雲底高度 460m
全天の8割程度の雲 雲底高度 640m
23日16時 SAST ~ 23日20時 SAST に 確率 30% で一時的に
全天の8割程度の雲 雲底高度 300m
少しの塔状積雲 雲底高度 910m
23日20時 SAST から
風向・風速北北西 5m/s
視程10km以上
全天の8割程度の雲 雲底高度 610m
24日1時 SAST ~ 24日3時 SAST に 確率 40% で一時的に
全天の8割程度の雲 雲底高度 300m
24日4時 SAST ~ 24日7時 SAST に 確率 40% で一時的に
視程4,000m
天気現象もや
全天の8割程度の雲 雲底高度 120m
24日8時 SAST ~ 24日10時 SAST に徐々に
全天の8割程度の雲 雲底高度 430m
24日11時 SAST ~ 24日13時 SAST に徐々に
全天の8割程度の雲 雲底高度 910m
TAF AMD FAOR 231310Z 2312/2418 34010KT 9999 -RA BKN015 BKN021
PROB30 TEMPO 2314/2318 BKN010 FEW030TCU
FM231800 34010KT 9999 BKN020
PROB40 TEMPO 2323/2401 BKN010
PROB40 TEMPO 2402/2405 4000 BR BKN004
BECMG 2406/2408 BKN014
BECMG 2409/2411 BKN030 TX24/2414Z TN13/2404Z